Time;durP1;ratioP1;P1;durP2;ratioP2;P2;SDS_P1;SDS_P2;PMS_P1;PMS_P2;Temp;Humidity;BMP_temperature;BMP_pressure;BME280_temperature;BME280_humidity;BME280_pressure;Samples;Min_cycle;Max_cycle;Signal;HPM_P1;HPM_P2
2023/08/12 01:38:34;;;;;;;9.80;7.73;;;20.70;99.90;;;;;;1501029;26;20242;-43
2023/08/12 01:41:01;;;;;;;14.23;8.67;;;20.60;99.90;;;;;;5040075;28;20219;-43
2023/08/12 01:43:26;;;;;;;12.57;7.87;;;20.60;99.90;;;;;;5056412;28;20274;-45
2023/08/12 01:45:52;;;;;;;10.13;7.97;;;20.60;99.90;;;;;;5074488;28;20734;-43
2023/08/12 01:48:20;;;;;;;13.17;8.27;;;20.60;99.90;;;;;;5056365;28;20295;-44
2023/08/12 01:50:47;;;;;;;10.13;7.50;;;20.60;99.90;;;;;;5074455;28;20556;-43
2023/08/12 01:53:13;;;;;;;10.53;7.63;;;20.60;99.90;;;;;;5074098;28;20187;-44
2023/08/12 01:55:44;;;;;;;10.40;7.80;;;20.60;99.90;;;;;;5055987;28;20298;-45
2023/08/12 01:58:10;;;;;;;10.47;7.97;;;20.60;99.90;;;;;;5056728;28;20241;-47
2023/08/12 02:00:36;;;;;;;11.70;7.70;;;20.60;99.90;;;;;;5074062;28;20608;-43
2023/08/12 02:03:02;;;;;;;9.47;7.57;;;20.60;99.90;;;;;;5056091;28;20188;-44
2023/08/12 02:05:28;;;;;;;7.93;6.70;;;20.60;99.90;;;;;;5073834;28;20187;-45
2023/08/12 02:07:53;;;;;;;10.20;6.87;;;20.60;99.90;;;;;;5055860;28;20215;-44
2023/08/12 02:10:19;;;;;;;10.60;7.20;;;20.60;99.90;;;;;;5055885;28;20202;-43
2023/08/12 02:12:45;;;;;;;13.33;6.63;;;20.60;99.90;;;;;;5073893;28;20187;-45
2023/08/12 02:15:11;;;;;;;13.03;7.40;;;20.60;99.90;;;;;;5055724;28;20227;-48
2023/08/12 02:17:37;;;;;;;13.13;7.93;;;20.60;99.90;;;;;;5055772;28;20211;-49
2023/08/12 02:20:04;;;;;;;13.07;7.83;;;20.60;99.90;;;;;;5055938;28;20330;-48
2023/08/12 02:22:30;;;;;;;11.67;8.00;;;20.70;99.90;;;;;;5055824;28;20325;-49
2023/08/12 02:24:56;;;;;;;12.83;7.93;;;20.60;99.90;;;;;;5055690;28;20651;-49
2023/08/12 02:27:21;;;;;;;12.70;7.70;;;20.60;99.90;;;;;;5074387;28;20211;-48
2023/08/12 02:29:47;;;;;;;16.53;8.50;;;20.60;99.90;;;;;;5055171;28;20202;-49
2023/08/12 02:32:13;;;;;;;11.83;7.97;;;20.60;99.90;;;;;;5073488;28;20194;-48
2023/08/12 02:34:39;;;;;;;15.47;8.67;;;20.50;99.90;;;;;;5055977;28;20301;-48
2023/08/12 02:37:05;;;;;;;12.70;8.27;;;20.60;99.90;;;;;;5073544;28;20659;-48
2023/08/12 02:39:31;;;;;;;11.77;7.73;;;20.50;99.90;;;;;;5073606;28;20197;-48
2023/08/12 02:41:57;;;;;;;12.13;7.77;;;20.50;99.90;;;;;;5073529;28;20195;-48
2023/08/12 02:44:22;;;;;;;15.70;9.03;;;20.50;99.90;;;;;;5073398;28;20312;-49
2023/08/12 02:46:48;;;;;;;10.30;7.77;;;20.50;99.90;;;;;;5073378;28;20215;-47
2023/08/12 02:49:14;;;;;;;12.10;8.83;;;20.50;99.90;;;;;;5073432;28;20531;-48
2023/08/12 02:51:40;;;;;;;11.57;8.53;;;20.40;99.90;;;;;;5055841;28;20187;-48
2023/08/12 02:54:06;;;;;;;17.23;9.93;;;20.50;99.90;;;;;;5073602;28;20217;-48
2023/08/12 02:56:32;;;;;;;13.17;10.07;;;20.40;99.90;;;;;;5073696;28;20211;-48
2023/08/12 02:58:59;;;;;;;15.23;10.23;;;20.50;99.90;;;;;;5055380;28;20187;-49
2023/08/12 03:01:27;;;;;;;13.13;9.70;;;20.50;99.90;;;;;;5073304;28;20259;-49
2023/08/12 03:03:53;;;;;;;12.67;10.53;;;20.50;99.90;;;;;;5073699;28;20222;-49
2023/08/12 03:06:19;;;;;;;13.67;10.47;;;20.50;99.90;;;;;;5055237;28;20215;-49
2023/08/12 03:08:44;;;;;;;15.20;9.93;;;20.50;99.90;;;;;;5038845;28;20194;-50
2023/08/12 03:11:10;;;;;;;14.40;10.53;;;20.50;99.90;;;;;;5073396;28;20191;-49
2023/08/12 03:13:36;;;;;;;13.53;10.10;;;20.50;99.90;;;;;;5073414;28;20184;-49
2023/08/12 03:16:02;;;;;;;16.77;10.33;;;20.50;99.90;;;;;;5073145;28;20207;-49
2023/08/12 03:18:28;;;;;;;16.53;11.63;;;20.50;99.90;;;;;;5055743;28;20184;-48
2023/08/12 03:20:54;;;;;;;15.53;10.67;;;20.50;99.90;;;;;;5055411;28;20180;-49
2023/08/12 03:23:20;;;;;;;15.27;11.67;;;20.50;99.90;;;;;;5055098;28;20241;-49
2023/08/12 03:25:49;;;;;;;17.40;11.37;;;20.50;99.90;;;;;;5073044;28;20191;-48
2023/08/12 03:28:15;;;;;;;14.17;11.63;;;20.50;99.90;;;;;;5055646;28;20245;-49
2023/08/12 03:30:41;;;;;;;14.90;11.30;;;20.50;99.90;;;;;;5055061;28;20192;-48
2023/08/12 03:33:07;;;;;;;15.77;11.83;;;20.50;99.90;;;;;;5073060;28;20553;-48
2023/08/12 03:35:33;;;;;;;13.17;10.47;;;20.40;99.90;;;;;;5054854;28;20218;-48
2023/08/12 03:37:59;;;;;;;13.53;10.67;;;20.50;99.90;;;;;;5055827;28;20236;-48
2023/08/12 03:40:25;;;;;;;12.77;10.30;;;20.40;99.90;;;;;;5072892;28;20199;-49
2023/08/12 03:42:51;;;;;;;15.17;10.57;;;20.40;99.90;;;;;;5058732;28;20199;-49
2023/08/12 03:45:18;;;;;;;15.57;11.53;;;20.40;99.90;;;;;;5077055;28;20631;-48
2023/08/12 03:47:44;;;;;;;18.13;12.37;;;20.40;99.90;;;;;;5076407;28;20254;-46
2023/08/12 03:50:09;;;;;;;16.30;10.93;;;20.40;99.90;;;;;;5077172;28;20262;-48
2023/08/12 03:52:35;;;;;;;16.60;11.80;;;20.30;99.90;;;;;;5076423;28;20188;-47
2023/08/12 03:55:01;;;;;;;17.73;11.73;;;20.30;99.90;;;;;;5058458;28;20298;-48
2023/08/12 03:57:27;;;;;;;16.77;11.80;;;20.30;99.90;;;;;;5076582;28;20199;-48
2023/08/12 03:59:53;;;;;;;16.67;11.80;;;20.30;99.90;;;;;;5076435;28;20183;-49
2023/08/12 04:02:19;;;;;;;14.20;11.60;;;20.30;99.90;;;;;;5058779;28;20279;-49
2023/08/12 04:04:45;;;;;;;13.53;10.40;;;20.30;99.90;;;;;;5041923;28;20274;-49
2023/08/12 04:07:10;;;;;;;13.37;11.07;;;20.30;99.90;;;;;;5058208;28;20211;-48
2023/08/12 04:09:36;;;;;;;15.63;11.10;;;20.30;99.90;;;;;;5076390;28;20253;-48
2023/08/12 04:12:02;;;;;;;14.63;11.53;;;20.20;99.90;;;;;;5058398;28;20218;-48
2023/08/12 04:14:28;;;;;;;15.90;11.07;;;20.30;99.90;;;;;;5076387;28;20222;-48
2023/08/12 04:16:54;;;;;;;16.90;12.00;;;20.30;99.90;;;;;;5076359;28;20643;-50
2023/08/12 04:19:20;;;;;;;14.43;11.30;;;20.30;99.90;;;;;;5076215;28;20659;-48
2023/08/12 04:21:46;;;;;;;16.37;11.70;;;20.30;99.90;;;;;;5058337;28;20211;-48
2023/08/12 04:24:12;;;;;;;19.43;12.70;;;20.30;99.90;;;;;;5076107;28;20186;-48
2023/08/12 04:26:40;;;;;;;16.90;12.23;;;20.30;99.90;;;;;;5075914;28;20203;-48
2023/08/12 04:29:06;;;;;;;15.73;12.20;;;20.30;99.90;;;;;;5076482;28;20597;-51
2023/08/12 04:31:32;;;;;;;15.93;12.17;;;20.30;99.90;;;;;;5057916;28;20188;-48
2023/08/12 04:34:01;;;;;;;18.43;12.13;;;20.30;99.90;;;;;;5076520;28;20194;-43
2023/08/12 04:36:54;;;;;;;18.30;12.73;;;20.30;99.90;;;;;;5058615;28;20211;-50
2023/08/12 04:42:42;;;;;;;19.30;11.60;;;20.20;99.90;;;;;;5097011;28;20216;-51
2023/08/12 04:45:56;;;;;;;17.40;11.40;;;20.30;99.90;;;;;;5078688;28;20195;-45
2023/08/12 04:48:22;;;;;;;15.27;11.87;;;20.20;99.90;;;;;;5096014;28;20179;-49
2023/08/12 04:50:47;;;;;;;18.80;12.37;;;20.30;99.90;;;;;;5077538;28;20550;-48
2023/08/12 04:53:13;;;;;;;14.27;11.63;;;20.30;99.90;;;;;;5095164;28;20183;-49
2023/08/12 04:55:39;;;;;;;14.37;11.13;;;20.20;99.90;;;;;;5095678;28;20210;-49
2023/08/12 04:58:05;;;;;;;16.10;11.67;;;20.30;99.90;;;;;;5095851;28;20179;-48
2023/08/12 05:00:32;;;;;;;14.87;11.87;;;20.30;99.90;;;;;;5095564;28;20175;-49
2023/08/12 05:02:58;;;;;;;18.57;12.13;;;20.30;99.90;;;;;;5095353;28;20705;-48
2023/08/12 05:05:25;;;;;;;14.77;11.33;;;20.30;99.90;;;;;;5077723;28;20606;-48
2023/08/12 05:07:55;;;;;;;17.77;12.10;;;20.30;99.90;;;;;;5077252;28;20306;-48
2023/08/12 05:10:32;;;;;;;15.10;10.90;;;20.30;99.90;;;;;;5060809;28;20195;-48
2023/08/12 05:12:59;;;;;;;18.00;11.03;;;20.30;99.90;;;;;;5062095;28;20672;-48
2023/08/12 05:15:24;;;;;;;14.37;10.73;;;20.40;99.90;;;;;;5077043;28;20302;-49
2023/08/12 05:17:50;;;;;;;17.57;10.87;;;20.40;99.90;;;;;;5077760;28;20382;-48
2023/08/12 05:20:16;;;;;;;11.73;9.57;;;20.40;99.90;;;;;;5095105;28;20214;-50
2023/08/12 05:22:42;;;;;;;11.00;9.50;;;20.40;99.90;;;;;;5076932;28;20187;-48
2023/08/12 05:25:08;;;;;;;12.07;9.63;;;20.40;99.90;;;;;;5076958;28;20567;-51
2023/08/12 05:27:34;;;;;;;14.83;9.67;;;20.40;99.90;;;;;;5076717;28;20218;-49
2023/08/12 05:30:01;;;;;;;13.87;9.17;;;20.50;99.90;;;;;;5076718;28;20194;-49
2023/08/12 05:32:27;;;;;;;11.10;7.90;;;20.50;99.90;;;;;;5076607;28;20747;-49
2023/08/12 05:34:53;;;;;;;8.10;6.00;;;20.40;99.90;;;;;;5076558;28;20222;-49
2023/08/12 05:37:18;;;;;;;11.57;6.60;;;20.40;99.90;;;;;;5076574;28;20230;-48
2023/08/12 05:39:44;;;;;;;11.43;6.77;;;20.40;99.90;;;;;;5080140;28;20257;-49
2023/08/12 05:42:10;;;;;;;8.73;6.77;;;20.40;99.90;;;;;;5056424;28;20187;-48
2023/08/12 05:44:36;;;;;;;9.53;6.83;;;20.30;99.90;;;;;;5056519;28;20188;-48
2023/08/12 05:47:02;;;;;;;11.37;6.60;;;20.30;99.90;;;;;;5056314;28;20667;-48
2023/08/12 05:49:28;;;;;;;10.73;7.10;;;20.30;99.90;;;;;;5056236;28;20194;-47
2023/08/12 05:51:53;;;;;;;11.03;7.07;;;20.30;99.90;;;;;;5056260;28;20264;-48
2023/08/12 05:54:19;;;;;;;7.97;7.17;;;20.20;99.90;;;;;;5074306;28;20211;-46
2023/08/12 05:56:45;;;;;;;10.70;7.17;;;20.20;99.90;;;;;;5056145;28;20214;-48
2023/08/12 05:59:10;;;;;;;10.70;7.40;;;20.20;99.90;;;;;;5056189;28;20191;-48
2023/08/12 06:01:36;;;;;;;13.37;7.97;;;20.10;99.90;;;;;;5074504;28;20190;-49
2023/08/12 06:04:02;;;;;;;8.63;7.37;;;20.10;99.90;;;;;;5056155;28;20202;-48
2023/08/12 06:06:27;;;;;;;9.43;6.27;;;20.10;99.90;;;;;;5073788;28;20268;-48
2023/08/12 06:08:53;;;;;;;8.90;4.90;;;20.00;99.90;;;;;;5055992;28;20247;-48
2023/08/12 06:11:19;;;;;;;7.33;3.83;;;20.00;99.90;;;;;;5055867;28;20279;-48
2023/08/12 06:13:45;;;;;;;5.17;3.00;;;20.00;99.90;;;;;;5074141;28;20202;-48
2023/08/12 06:16:10;;;;;;;4.30;3.50;;;19.90;99.90;;;;;;5073920;28;20211;-49
2023/08/12 06:18:36;;;;;;;5.50;3.13;;;19.90;99.90;;;;;;5074003;28;20206;-49
2023/08/12 06:21:02;;;;;;;4.37;2.90;;;19.90;99.90;;;;;;5056310;28;20568;-48
2023/08/12 06:23:29;;;;;;;4.80;3.00;;;19.90;99.90;;;;;;5073977;28;20191;-49
2023/08/12 06:25:55;;;;;;;5.10;3.10;;;19.90;99.90;;;;;;5055614;28;20215;-49
2023/08/12 06:28:20;;;;;;;5.20;2.70;;;19.90;99.90;;;;;;5073610;28;20555;-50
2023/08/12 06:30:48;;;;;;;4.77;2.73;;;19.90;99.90;;;;;;5055745;28;20206;-48
2023/08/12 06:33:14;;;;;;;6.17;2.47;;;19.90;99.90;;;;;;5055684;28;20204;-48
2023/08/12 06:35:40;;;;;;;3.47;2.33;;;19.90;99.90;;;;;;5073498;28;20242;-47
2023/08/12 06:38:06;;;;;;;5.30;2.60;;;20.00;99.90;;;;;;5055394;28;20215;-49
2023/08/12 06:40:31;;;;;;;6.97;3.37;;;20.00;99.90;;;;;;5055453;28;20204;-48
2023/08/12 06:42:57;;;;;;;3.63;2.57;;;20.00;99.90;;;;;;5073749;28;20708;-49
2023/08/12 06:45:23;;;;;;;5.30;2.60;;;20.00;99.90;;;;;;5073789;28;20191;-50
2023/08/12 06:47:49;;;;;;;3.43;2.43;;;20.10;99.90;;;;;;5055356;28;20215;-49
2023/08/12 06:50:14;;;;;;;2.63;2.03;;;20.10;99.90;;;;;;5073350;28;20194;-48
2023/08/12 06:52:40;;;;;;;3.60;2.23;;;20.20;99.90;;;;;;5055986;28;20289;-48
2023/08/12 06:55:06;;;;;;;3.17;2.20;;;20.20;99.90;;;;;;5055499;28;20206;-49
2023/08/12 06:57:32;;;;;;;3.47;2.00;;;20.20;99.90;;;;;;5055442;28;20632;-49
2023/08/12 06:59:57;;;;;;;2.20;1.80;;;20.20;99.90;;;;;;5073420;28;20250;-48
2023/08/12 07:02:23;;;;;;;3.07;2.30;;;20.30;99.90;;;;;;5055460;28;20194;-48
2023/08/12 07:04:48;;;;;;;3.87;2.40;;;20.30;99.90;;;;;;5073376;28;20241;-49
2023/08/12 07:07:14;;;;;;;2.43;2.00;;;20.30;99.90;;;;;;5073651;28;20204;-48
2023/08/12 07:09:40;;;;;;;3.20;1.70;;;20.30;99.90;;;;;;5073640;28;20203;-48
2023/08/12 07:12:06;;;;;;;2.43;1.70;;;20.30;99.90;;;;;;5055463;28;20195;-48
2023/08/12 07:14:32;;;;;;;3.57;1.70;;;20.40;99.90;;;;;;5073405;28;20211;-49
2023/08/12 07:16:57;;;;;;;3.07;1.70;;;20.30;99.90;;;;;;5077182;28;20214;-48
2023/08/12 07:19:23;;;;;;;2.67;1.77;;;20.30;99.90;;;;;;5077346;28;20655;-47
2023/08/12 07:21:49;;;;;;;3.00;1.73;;;20.40;99.90;;;;;;5077456;28;20197;-49
2023/08/12 07:24:14;;;;;;;2.07;1.57;;;20.40;99.90;;;;;;5059489;28;20195;-49
2023/08/12 07:26:40;;;;;;;1.60;1.50;;;20.40;99.90;;;;;;5077686;28;20199;-48
2023/08/12 07:29:06;;;;;;;2.03;1.47;;;20.40;99.90;;;;;;5077763;28;20554;-48
2023/08/12 07:31:31;;;;;;;4.80;2.00;;;20.40;99.90;;;;;;5077467;28;20176;-49
2023/08/12 07:33:57;;;;;;;2.77;2.20;;;20.40;99.90;;;;;;5077949;28;20191;-48
2023/08/12 07:36:23;;;;;;;2.57;1.80;;;20.40;99.90;;;;;;5059343;28;20204;-46
2023/08/12 07:38:49;;;;;;;3.67;1.50;;;20.40;99.90;;;;;;5066574;28;20210;-52
2023/08/12 07:41:15;;;;;;;1.97;1.60;;;20.50;99.90;;;;;;5079398;28;20187;-42
2023/08/12 07:43:41;;;;;;;2.47;1.73;;;20.50;99.90;;;;;;5078896;28;20178;-44
2023/08/12 07:46:09;;;;;;;5.27;1.73;;;20.50;99.90;;;;;;5078705;28;20198;-43
2023/08/12 07:48:38;;;;;;;1.63;1.53;;;20.60;99.90;;;;;;5097260;28;20553;-43
2023/08/12 07:51:04;;;;;;;1.30;1.20;;;20.70;99.90;;;;;;5097200;28;20179;-44
2023/08/12 07:53:34;;;;;;;1.73;1.30;;;20.80;99.90;;;;;;5096969;28;20187;-44
2023/08/12 07:56:00;;;;;;;1.63;1.30;;;20.90;99.90;;;;;;5096641;28;20213;-43
2023/08/12 07:58:27;;;;;;;3.77;1.50;;;20.90;99.90;;;;;;5078959;28;20273;-44
2023/08/12 08:00:54;;;;;;;6.13;1.70;;;21.00;99.90;;;;;;5062397;28;20182;-43
2023/08/12 08:03:20;;;;;;;2.40;1.40;;;21.10;99.90;;;;;;5097029;28;20175;-44
2023/08/12 08:05:46;;;;;;;3.20;1.60;;;21.10;99.90;;;;;;5078592;28;20197;-42
2023/08/12 08:08:13;;;;;;;2.17;1.80;;;21.20;99.90;;;;;;5078391;28;20193;-44
2023/08/12 08:10:39;;;;;;;2.77;1.40;;;21.20;99.90;;;;;;5096494;28;20198;-45
2023/08/12 08:13:05;;;;;;;1.47;1.10;;;21.20;99.90;;;;;;5096578;28;20190;-42
2023/08/12 08:15:32;;;;;;;1.53;1.10;;;21.20;99.90;;;;;;5078278;28;20732;-46
2023/08/12 08:17:59;;;;;;;1.47;1.17;;;21.20;99.90;;;;;;5096874;28;20171;-44
2023/08/12 08:20:26;;;;;;;1.63;1.00;;;21.20;99.90;;;;;;5078391;28;20191;-45
2023/08/12 08:22:55;;;;;;;2.23;1.20;;;21.20;99.90;;;;;;5078255;28;20177;-44
2023/08/12 08:25:21;;;;;;;1.70;0.93;;;21.20;99.90;;;;;;5096770;28;20198;-44
2023/08/12 08:27:47;;;;;;;1.43;1.00;;;21.20;99.90;;;;;;5060863;28;20230;-45
2023/08/12 08:30:14;;;;;;;1.40;0.83;;;21.10;99.90;;;;;;5096876;28;20262;-45
2023/08/12 08:32:40;;;;;;;5.30;1.20;;;21.10;99.90;;;;;;5078035;28;20183;-45
2023/08/12 08:35:06;;;;;;;3.57;1.27;;;21.10;99.90;;;;;;5077970;28;20585;-43
2023/08/12 08:37:32;;;;;;;1.73;0.90;;;21.10;99.90;;;;;;5096009;28;20201;-45
2023/08/12 08:39:58;;;;;;;1.57;1.00;;;21.10;99.90;;;;;;5079646;28;20559;-46
2023/08/12 08:42:25;;;;;;;1.83;1.13;;;21.10;99.90;;;;;;5075767;28;20187;-44
2023/08/12 08:44:58;;;;;;;1.47;1.00;;;21.10;99.90;;;;;;5057831;28;20706;-44
2023/08/12 08:47:27;;;;;;;3.90;1.00;;;21.20;99.90;;;;;;5057657;28;20575;-43
2023/08/12 08:49:57;;;;;;;2.53;1.03;;;21.20;99.90;;;;;;5057706;28;20833;-44
2023/08/12 08:52:28;;;;;;;1.30;1.00;;;21.30;99.90;;;;;;5058475;28;20188;-43
2023/08/12 08:54:56;;;;;;;1.00;0.90;;;21.30;99.90;;;;;;5075557;28;20205;-44
2023/08/12 08:57:23;;;;;;;2.00;1.00;;;21.50;99.90;;;;;;5057556;28;20241;-44
2023/08/12 08:59:49;;;;;;;1.10;0.87;;;21.50;99.90;;;;;;5075578;28;20718;-44
2023/08/12 09:02:19;;;;;;;2.80;0.90;;;21.60;99.90;;;;;;5057387;28;20188;-44
2023/08/12 09:04:46;;;;;;;1.17;1.00;;;21.70;99.90;;;;;;5057404;28;20206;-43
2023/08/12 09:07:15;;;;;;;1.07;0.90;;;21.80;99.90;;;;;;5075199;28;20200;-44
2023/08/12 09:09:48;;;;;;;6.23;1.20;;;21.90;99.90;;;;;;5075267;28;20183;-45
2023/08/12 09:12:16;;;;;;;1.43;0.90;;;21.90;99.90;;;;;;5040914;28;20677;-45
2023/08/12 09:14:45;;;;;;;2.23;1.13;;;21.90;99.90;;;;;;5057129;28;20264;-43
2023/08/12 09:17:11;;;;;;;0.80;0.80;;;21.90;99.90;;;;;;5057170;28;20257;-43
2023/08/12 09:19:38;;;;;;;1.07;0.90;;;21.90;99.90;;;;;;5075057;28;20184;-42
2023/08/12 09:22:09;;;;;;;1.00;0.90;;;21.90;99.90;;;;;;5075120;28;20203;-43
2023/08/12 09:24:35;;;;;;;1.47;0.90;;;22.00;99.90;;;;;;5075105;28;20175;-43
2023/08/12 09:27:01;;;;;;;0.90;0.80;;;22.10;99.90;;;;;;5040485;28;20204;-44
2023/08/12 09:29:32;;;;;;;3.60;1.10;;;22.20;99.90;;;;;;5056907;28;20192;-43
2023/08/12 09:32:20;;;;;;;1.37;1.00;;;22.50;99.90;;;;;;5075048;28;20184;-43
2023/08/12 09:34:48;;;;;;;0.93;0.70;;;22.60;99.90;;;;;;5057025;28;20211;-44
2023/08/12 09:37:15;;;;;;;1.93;1.00;;;22.70;99.90;;;;;;5056755;28;20211;-45
2023/08/12 09:39:41;;;;;;;1.13;0.80;;;22.80;99.90;;;;;;5070507;28;20565;-44
2023/08/12 09:42:07;;;;;;;0.80;0.80;;;22.80;99.90;;;;;;5076682;28;20277;-44
2023/08/12 09:44:37;;;;;;;1.20;0.80;;;22.90;99.90;;;;;;5076589;28;20241;-44
2023/08/12 09:47:04;;;;;;;1.60;0.80;;;22.90;99.90;;;;;;5076512;28;20211;-43
2023/08/12 09:49:30;;;;;;;0.93;0.70;;;22.90;99.90;;;;;;5094722;28;20270;-43
2023/08/12 09:51:56;;;;;;;0.77;0.67;;;22.90;99.90;;;;;;5094962;28;20190;-44
2023/08/12 09:54:25;;;;;;;0.60;0.60;;;22.90;99.90;;;;;;5076274;28;20598;-43
2023/08/12 09:57:00;;;;;;;0.80;0.70;;;22.80;99.90;;;;;;5076497;28;20361;-43
2023/08/12 09:59:35;;;;;;;1.07;0.87;;;22.70;99.90;;;;;;5095265;28;20160;-44
2023/08/12 10:02:07;;;;;;;0.53;0.53;;;22.70;99.90;;;;;;5094539;28;20159;-45
2023/08/12 10:04:42;;;;;;;4.10;0.70;;;22.70;99.90;;;;;;5077077;28;20249;-43
2023/08/12 10:07:14;;;;;;;0.80;0.77;;;22.70;99.90;;;;;;5076903;28;20199;-45
2023/08/12 10:09:50;;;;;;;0.90;0.73;;;22.60;99.90;;;;;;5094359;28;20179;-44
2023/08/12 10:12:19;;;;;;;1.00;0.70;;;22.60;99.90;;;;;;5077009;28;20262;-44
2023/08/12 10:14:47;;;;;;;4.67;0.80;;;22.50;99.90;;;;;;5076102;28;20210;-43
2023/08/12 10:17:13;;;;;;;1.77;0.70;;;22.40;99.90;;;;;;5076052;28;20206;-43
2023/08/12 10:19:44;;;;;;;0.53;0.53;;;22.30;99.90;;;;;;5094322;28;20240;-44
2023/08/12 10:22:11;;;;;;;1.80;0.70;;;22.20;99.90;;;;;;5094227;28;20167;-45
2023/08/12 10:24:40;;;;;;;0.70;0.70;;;22.20;99.90;;;;;;5094246;28;20681;-44
2023/08/12 10:27:06;;;;;;;3.70;1.00;;;22.10;99.90;;;;;;5075809;28;20230;-44
2023/08/12 10:29:32;;;;;;;0.83;0.50;;;22.10;99.90;;;;;;5094569;28;20174;-45
2023/08/12 10:31:58;;;;;;;0.77;0.70;;;22.00;99.90;;;;;;5093945;28;20190;-44
2023/08/12 10:34:25;;;;;;;2.23;0.73;;;21.90;99.90;;;;;;5093754;28;20206;-44
2023/08/12 10:37:00;;;;;;;0.70;0.70;;;21.90;99.90;;;;;;5075937;28;20700;-49
2023/08/12 10:39:26;;;;;;;1.20;0.67;;;21.90;99.90;;;;;;5081837;28;20245;-49
2023/08/12 10:41:55;;;;;;;0.67;0.60;;;21.90;99.90;;;;;;5055438;28;20683;-50
2023/08/12 10:44:22;;;;;;;1.13;0.60;;;21.90;99.90;;;;;;5073714;28;20260;-49
2023/08/12 10:47:02;;;;;;;0.60;0.60;;;21.90;99.90;;;;;;5055536;28;20689;-44
2023/08/12 10:50:24;;;;;;;0.60;0.60;;;22.00;99.90;;;;;;5073417;28;20178;-45
2023/08/12 10:53:31;;;;;;;0.60;0.60;;;22.00;99.90;;;;;;5070227;28;20184;-44
2023/08/12 10:56:04;;;;;;;0.50;0.50;;;22.10;99.90;;;;;;5039461;28;20233;-46
2023/08/12 10:58:36;;;;;;;0.40;0.40;;;22.20;99.90;;;;;;5039028;28;20266;-44
2023/08/12 11:01:02;;;;;;;1.03;0.50;;;22.40;99.90;;;;;;5073831;28;20164;-44
2023/08/12 11:03:36;;;;;;;0.40;0.40;;;22.50;99.90;;;;;;5055482;28;20186;-44
2023/08/12 11:06:03;;;;;;;0.80;0.70;;;22.60;99.90;;;;;;5056126;28;20290;-45
2023/08/12 11:08:29;;;;;;;1.03;0.60;;;22.80;99.90;;;;;;5073441;28;20271;-45
2023/08/12 11:10:58;;;;;;;2.50;0.70;;;22.80;99.90;;;;;;5055601;28;20205;-45
2023/08/12 11:13:27;;;;;;;1.57;0.60;;;22.90;99.90;;;;;;5039013;28;20217;-43
2023/08/12 11:16:07;;;;;;;0.63;0.60;;;23.00;99.90;;;;;;5073066;28;20611;-43
2023/08/12 11:18:34;;;;;;;1.63;0.60;;;23.00;99.90;;;;;;5055371;28;20176;-44
2023/08/12 11:21:01;;;;;;;0.50;0.50;;;23.10;99.90;;;;;;5073199;28;20180;-44
2023/08/12 11:23:28;;;;;;;1.40;0.50;;;23.10;99.90;;;;;;5073338;28;20258;-45
2023/08/12 11:25:54;;;;;;;0.40;0.40;;;23.10;99.90;;;;;;5073085;28;20207;-43
2023/08/12 11:28:20;;;;;;;1.27;0.40;;;23.10;99.90;;;;;;5055177;28;20194;-44
2023/08/12 11:30:45;;;;;;;1.70;0.60;;;23.20;99.90;;;;;;5055089;28;20233;-42
2023/08/12 11:33:12;;;;;;;0.60;0.50;;;23.40;99.90;;;;;;5038743;28;20221;-44
2023/08/12 11:35:38;;;;;;;0.30;0.30;;;23.50;99.90;;;;;;5054981;28;20210;-43
2023/08/12 11:38:05;;;;;;;1.77;0.63;;;23.50;99.90;;;;;;5055005;28;20587;-44
2023/08/12 11:40:31;;;;;;;0.70;0.50;;;23.60;99.90;;;;;;5073600;28;20179;-44
2023/08/12 11:42:57;;;;;;;1.27;0.60;;;23.50;99.90;;;;;;5072971;28;20266;-44
2023/08/12 11:45:24;;;;;;;0.80;0.57;;;23.60;99.90;;;;;;5073211;28;20724;-43
2023/08/12 11:47:53;;;;;;;0.97;0.70;;;23.60;99.90;;;;;;5072901;28;20695;-44
2023/08/12 11:50:24;;;;;;;0.90;0.73;;;23.70;99.90;;;;;;5074503;28;20571;-43
2023/08/12 11:52:51;;;;;;;1.47;0.60;;;23.80;99.90;;;;;;5055245;28;20176;-44
2023/08/12 11:55:17;;;;;;;0.53;0.43;;;24.00;99.90;;;;;;5072872;28;20207;-45
2023/08/12 11:57:47;;;;;;;0.57;0.57;;;24.10;99.90;;;;;;5072981;28;20547;-45
2023/08/12 12:00:13;;;;;;;1.17;0.77;;;24.20;99.90;;;;;;5072907;28;20176;-44
2023/08/12 12:02:41;;;;;;;0.70;0.70;;;24.30;99.90;;;;;;5074737;28;20191;-45
2023/08/12 12:05:14;;;;;;;0.60;0.60;;;24.40;99.90;;;;;;5076487;28;20183;-46
2023/08/12 12:07:40;;;;;;;0.63;0.50;;;24.40;99.90;;;;;;5076327;28;20639;-44
2023/08/12 12:10:07;;;;;;;1.30;0.50;;;24.10;99.90;;;;;;5076657;28;20542;-45
2023/08/12 13:40:27;;;;;;;2.70;0.70;;;23.40;99.90;;;;;;5073120;28;20737;-44
2023/08/12 13:42:53;;;;;;;1.60;1.03;;;23.40;99.90;;;;;;5090202;28;20238;-45
2023/08/12 13:45:18;;;;;;;1.97;0.83;;;23.40;99.90;;;;;;5090160;28;20222;-45
2023/08/12 13:47:44;;;;;;;1.57;0.67;;;23.40;99.90;;;;;;5092960;28;20197;-44
2023/08/12 13:50:10;;;;;;;0.70;0.60;;;23.50;99.90;;;;;;5076580;28;20187;-46
2023/08/12 13:52:36;;;;;;;3.40;0.80;;;23.50;99.90;;;;;;5076509;28;20187;-43
2023/08/12 13:55:03;;;;;;;0.87;0.60;;;23.60;99.90;;;;;;5076297;28;20214;-43
2023/08/12 13:57:29;;;;;;;2.77;1.07;;;23.70;99.90;;;;;;5094419;28;20187;-44
2023/08/12 13:59:55;;;;;;;1.80;0.97;;;23.90;99.90;;;;;;5094912;28;20191;-46
2023/08/12 14:02:20;;;;;;;3.97;1.07;;;24.10;99.90;;;;;;5077047;28;20183;-51
2023/08/12 14:04:46;;;;;;;0.90;0.87;;;24.30;99.90;;;;;;5096215;28;20187;-50
2023/08/12 14:07:12;;;;;;;1.00;0.83;;;24.40;99.90;;;;;;5095905;28;20217;-45
2023/08/12 14:09:37;;;;;;;1.10;0.80;;;24.40;99.90;;;;;;5096594;28;20198;-45
2023/08/12 14:12:04;;;;;;;2.17;1.00;;;24.30;99.90;;;;;;5077596;28;20240;-51
2023/08/12 14:14:30;;;;;;;1.90;0.90;;;24.40;99.90;;;;;;5095858;28;20194;-51
2023/08/12 14:16:56;;;;;;;1.00;0.80;;;24.40;99.90;;;;;;5095634;28;20203;-52
2023/08/12 14:19:22;;;;;;;1.07;0.80;;;24.50;99.90;;;;;;5095656;28;20189;-46
2023/08/12 14:21:48;;;;;;;4.20;1.00;;;24.60;99.90;;;;;;5095294;28;20634;-46
2023/08/12 14:24:13;;;;;;;3.07;0.80;;;24.80;99.90;;;;;;5076798;28;20321;-50
2023/08/12 14:26:40;;;;;;;1.53;0.87;;;24.90;99.90;;;;;;5094801;28;20245;-46
2023/08/12 14:29:06;;;;;;;0.80;0.70;;;24.90;99.90;;;;;;5076987;28;20194;-51
2023/08/12 14:31:33;;;;;;;0.73;0.73;;;24.80;99.90;;;;;;5095146;28;20199;-45
2023/08/12 14:33:58;;;;;;;3.33;1.17;;;24.80;99.90;;;;;;5077123;28;20279;-51
2023/08/12 14:36:24;;;;;;;0.73;0.73;;;24.80;99.90;;;;;;5076806;28;20246;-48
2023/08/12 14:38:52;;;;;;;1.00;0.90;;;24.80;99.90;;;;;;5076693;28;20209;-50
2023/08/12 14:41:18;;;;;;;0.83;0.83;;;24.80;99.90;;;;;;5076802;28;20179;-47
2023/08/12 14:43:44;;;;;;;4.63;1.00;;;24.90;99.90;;;;;;5076652;28;20179;-45
2023/08/12 14:46:09;;;;;;;0.87;0.87;;;24.80;99.90;;;;;;5094906;28;20213;-51
2023/08/12 14:48:42;;;;;;;2.17;1.10;;;24.80;99.90;;;;;;5076927;28;20684;-52
2023/08/12 14:51:19;;;;;;;5.67;1.00;;;24.80;99.90;;;;;;5076439;28;20183;-52
2023/08/12 15:00:52;;;;;;;2.10;0.87;;;25.20;99.90;;;;;;5095280;28;20289;-46
2023/08/12 15:03:21;;;;;;;2.83;1.10;;;25.20;99.90;;;;;;5077071;28;20650;-51
2023/08/12 15:06:05;;;;;;;1.10;0.90;;;25.20;99.90;;;;;;5095283;28;20255;-46
2023/08/12 15:09:06;;;;;;;3.10;1.00;;;25.10;99.90;;;;;;5076066;28;20680;-51
2023/08/12 15:11:32;;;;;;;2.73;0.97;;;25.10;99.90;;;;;;5017018;28;20193;-44
2023/08/12 15:13:58;;;;;;;2.03;1.13;;;25.10;99.90;;;;;;5033669;28;20181;-50
2023/08/12 15:16:29;;;;;;;4.30;1.40;;;25.20;99.90;;;;;;5032498;28;20274;-45
2023/08/12 15:19:25;;;;;;;1.63;0.90;;;25.20;99.90;;;;;;5032916;28;20177;-45
2023/08/12 15:21:52;;;;;;;3.63;1.47;;;25.10;99.90;;;;;;5076969;28;20244;-50
2023/08/12 15:24:29;;;;;;;1.60;0.93;;;25.20;99.90;;;;;;5059975;28;20650;-44
2023/08/12 15:27:22;;;;;;;2.70;1.10;;;25.20;99.90;;;;;;5096184;28;20218;-45
2023/08/12 15:29:48;;;;;;;1.93;0.80;;;25.30;99.90;;;;;;5095273;28;20201;-46
2023/08/12 15:32:14;;;;;;;2.90;0.90;;;25.30;99.90;;;;;;5076610;28;20183;-51
2023/08/12 15:34:39;;;;;;;2.13;1.00;;;25.40;99.90;;;;;;5094720;28;20191;-49
2023/08/12 15:37:05;;;;;;;2.50;1.20;;;25.50;99.90;;;;;;5096974;28;20191;-46
2023/08/12 15:39:32;;;;;;;3.90;1.43;;;25.50;99.90;;;;;;5098999;28;20197;-52
2023/08/12 15:41:58;;;;;;;5.63;1.23;;;25.40;99.90;;;;;;5098112;28;20191;-46
2023/08/12 15:44:23;;;;;;;2.67;1.20;;;25.30;99.90;;;;;;5080372;28;20187;-51
2023/08/12 15:46:49;;;;;;;4.37;1.20;;;25.20;99.90;;;;;;5080173;28;20203;-45
2023/08/12 15:49:15;;;;;;;3.57;1.50;;;25.10;99.90;;;;;;5080197;28;20653;-46
2023/08/12 15:51:42;;;;;;;5.97;1.53;;;25.20;99.90;;;;;;5098356;28;20225;-51
2023/08/12 15:54:08;;;;;;;5.27;1.50;;;25.20;99.90;;;;;;5098476;28;20185;-47
2023/08/12 15:56:36;;;;;;;2.90;0.80;;;25.40;99.90;;;;;;5080412;28;20218;-50
2023/08/12 15:59:04;;;;;;;4.00;1.20;;;25.60;99.90;;;;;;5080041;28;20258;-48